sensor_id;sensor_type;location;lat;lon;timestamp;pressure;altitude;pressure_sealevel;temperature;humidity
26563;BME280;14217;50.986;5.826;2023-07-02T00:00:01;100198.00;;;27.66;38.33
26563;BME280;14217;50.986;5.826;2023-07-02T00:05:03;100193.50;;;27.66;38.56
26563;BME280;14217;50.986;5.826;2023-07-02T00:10:05;100184.72;;;27.64;38.42
26563;BME280;14217;50.986;5.826;2023-07-02T00:15:08;100188.38;;;27.63;38.32
26563;BME280;14217;50.986;5.826;2023-07-02T00:20:10;100185.13;;;27.69;38.05
26563;BME280;14217;50.986;5.826;2023-07-02T00:25:16;100182.84;;;27.65;38.31
26563;BME280;14217;50.986;5.826;2023-07-02T00:30:18;100169.81;;;27.70;38.11
26563;BME280;14217;50.986;5.826;2023-07-02T00:35:20;100177.88;;;27.70;38.13
26563;BME280;14217;50.986;5.826;2023-07-02T00:40:22;100175.50;;;27.67;37.94
26563;BME280;14217;50.986;5.826;2023-07-02T00:45:24;100178.31;;;27.65;38.13
26563;BME280;14217;50.986;5.826;2023-07-02T00:50:29;100188.25;;;27.65;38.15
26563;BME280;14217;50.986;5.826;2023-07-02T00:55:30;100189.66;;;27.69;37.85
26563;BME280;14217;50.986;5.826;2023-07-02T01:00:32;100194.78;;;27.62;37.98
26563;BME280;14217;50.986;5.826;2023-07-02T01:05:34;100185.41;;;27.66;37.95
26563;BME280;14217;50.986;5.826;2023-07-02T01:10:39;100187.22;;;27.66;37.92
26563;BME280;14217;50.986;5.826;2023-07-02T01:15:44;100187.22;;;27.66;37.92
26563;BME280;14217;50.986;5.826;2023-07-02T01:20:47;100191.22;;;27.62;37.93
26563;BME280;14217;50.986;5.826;2023-07-02T01:25:51;100174.91;;;27.63;38.02
26563;BME280;14217;50.986;5.826;2023-07-02T01:30:53;100181.31;;;27.62;37.77
26563;BME280;14217;50.986;5.826;2023-07-02T01:35:55;100187.09;;;27.67;37.87
26563;BME280;14217;50.986;5.826;2023-07-02T01:40:57;100190.50;;;27.69;37.67
26563;BME280;14217;50.986;5.826;2023-07-02T01:45:59;100188.25;;;27.65;37.57
26563;BME280;14217;50.986;5.826;2023-07-02T01:51:03;100197.16;;;27.65;37.40
26563;BME280;14217;50.986;5.826;2023-07-02T01:56:05;100198.00;;;27.66;37.54
26563;BME280;14217;50.986;5.826;2023-07-02T02:01:07;100203.69;;;27.63;37.64
26563;BME280;14217;50.986;5.826;2023-07-02T02:06:09;100197.16;;;27.65;37.44
26563;BME280;14217;50.986;5.826;2023-07-02T02:11:11;100205.22;;;27.65;37.52
26563;BME280;14217;50.986;5.826;2023-07-02T02:16:13;100213.31;;;27.65;37.35
26563;BME280;14217;50.986;5.826;2023-07-02T02:21:15;100206.66;;;27.60;37.51
26563;BME280;14217;50.986;5.826;2023-07-02T02:26:21;100207.22;;;27.63;37.37
26563;BME280;14217;50.986;5.826;2023-07-02T02:31:23;100212.59;;;27.63;37.62
26563;BME280;14217;50.986;5.826;2023-07-02T02:36:25;100217.97;;;27.63;37.47
26563;BME280;14217;50.986;5.826;2023-07-02T02:41:27;100216.28;;;27.62;37.46
26563;BME280;14217;50.986;5.826;2023-07-02T02:46:30;100222.22;;;27.66;37.39
26563;BME280;14217;50.986;5.826;2023-07-02T02:51:32;100214.16;;;27.66;37.28
26563;BME280;14217;50.986;5.826;2023-07-02T02:56:34;100219.25;;;27.69;37.27
26563;BME280;14217;50.986;5.826;2023-07-02T03:01:36;100218.56;;;27.67;37.35
26563;BME280;14217;50.986;5.826;2023-07-02T03:06:39;100226.06;;;27.63;37.09
26563;BME280;14217;50.986;5.826;2023-07-02T03:11:41;100223.38;;;27.63;37.08
26563;BME280;14217;50.986;5.826;2023-07-02T03:16:43;100229.44;;;27.65;37.26
26563;BME280;14217;50.986;5.826;2023-07-02T03:21:47;100226.63;;;27.67;37.12
26563;BME280;14217;50.986;5.826;2023-07-02T03:26:49;100241.22;;;27.64;37.02
26563;BME280;14217;50.986;5.826;2023-07-02T03:31:51;100240.34;;;27.64;37.29
26563;BME280;14217;50.986;5.826;2023-07-02T03:36:52;100243.47;;;27.59;37.20
26563;BME280;14217;50.986;5.826;2023-07-02T03:41:54;100252.97;;;27.63;37.11
26563;BME280;14217;50.986;5.826;2023-07-02T03:46:56;100258.47;;;27.62;37.23
26563;BME280;14217;50.986;5.826;2023-07-02T03:51:58;100263.31;;;27.58;37.18
26563;BME280;14217;50.986;5.826;2023-07-02T03:57:00;100262.31;;;27.59;36.96
26563;BME280;14217;50.986;5.826;2023-07-02T04:02:02;100279.88;;;27.63;37.28
26563;BME280;14217;50.986;5.826;2023-07-02T04:07:04;100275.06;;;27.57;37.32
26563;BME280;14217;50.986;5.826;2023-07-02T04:12:07;100279.88;;;27.63;36.99
26563;BME280;14217;50.986;5.826;2023-07-02T04:17:09;100277.31;;;27.62;36.85
26563;BME280;14217;50.986;5.826;2023-07-02T04:22:11;100291.78;;;27.61;36.96
26563;BME280;14217;50.986;5.826;2023-07-02T04:27:13;100303.25;;;27.63;37.10
26563;BME280;14217;50.986;5.826;2023-07-02T04:32:38;100299.72;;;27.62;36.99
26563;BME280;14217;50.986;5.826;2023-07-02T04:37:43;100291.66;;;27.62;36.88
26563;BME280;14217;50.986;5.826;2023-07-02T04:42:45;100300.28;;;27.56;37.29
26563;BME280;14217;50.986;5.826;2023-07-02T04:47:50;100309.91;;;27.58;37.11
26563;BME280;14217;50.986;5.826;2023-07-02T04:52:52;100308.91;;;27.60;36.97
26563;BME280;14217;50.986;5.826;2023-07-02T04:57:54;100322.34;;;27.60;36.99
26563;BME280;14217;50.986;5.826;2023-07-02T05:02:56;100323.06;;;27.42;37.35
26563;BME280;14217;50.986;5.826;2023-07-02T05:07:58;100324.63;;;27.35;37.42
26563;BME280;14217;50.986;5.826;2023-07-02T05:13:00;100337.22;;;27.34;37.38
26563;BME280;14217;50.986;5.826;2023-07-02T05:18:02;100332.25;;;27.40;37.58
26563;BME280;14217;50.986;5.826;2023-07-02T05:23:04;100337.94;;;27.36;37.97
26563;BME280;14217;50.986;5.826;2023-07-02T05:28:06;100341.56;;;27.26;40.18
26563;BME280;14217;50.986;5.826;2023-07-02T05:33:08;100351.97;;;27.09;40.77
26563;BME280;14217;50.986;5.826;2023-07-02T05:38:10;100359.28;;;26.97;41.18
26563;BME280;14217;50.986;5.826;2023-07-02T05:43:12;100349.53;;;26.96;41.37
26563;BME280;14217;50.986;5.826;2023-07-02T05:48:17;100363.53;;;27.00;40.11
26563;BME280;14217;50.986;5.826;2023-07-02T05:53:19;100365.56;;;27.08;40.91
26563;BME280;14217;50.986;5.826;2023-07-02T05:58:21;100371.91;;;27.07;40.80
26563;BME280;14217;50.986;5.826;2023-07-02T06:03:39;100376.00;;;27.01;41.88
26563;BME280;14217;50.986;5.826;2023-07-02T06:08:41;100382.22;;;27.02;42.81
26563;BME280;14217;50.986;5.826;2023-07-02T06:13:43;100383.53;;;27.07;43.29
26563;BME280;14217;50.986;5.826;2023-07-02T06:18:45;100388.75;;;27.09;41.63
26563;BME280;14217;50.986;5.826;2023-07-02T06:23:47;100393.78;;;27.23;41.25
26563;BME280;14217;50.986;5.826;2023-07-02T06:28:50;100394.19;;;27.18;41.09
26563;BME280;14217;50.986;5.826;2023-07-02T06:33:52;100401.94;;;27.12;40.34
26563;BME280;14217;50.986;5.826;2023-07-02T06:38:54;100410.66;;;27.25;39.95
26563;BME280;14217;50.986;5.826;2023-07-02T06:43:57;100407.66;;;26.97;39.01
26563;BME280;14217;50.986;5.826;2023-07-02T06:48:59;100415.25;;;26.83;39.21
26563;BME280;14217;50.986;5.826;2023-07-02T06:54:01;100423.44;;;26.81;39.13
26563;BME280;14217;50.986;5.826;2023-07-02T06:59:03;100435.56;;;26.75;39.13
26563;BME280;14217;50.986;5.826;2023-07-02T07:04:05;100431.97;;;26.65;38.93
26563;BME280;14217;50.986;5.826;2023-07-02T07:09:07;100441.06;;;26.74;38.89
26563;BME280;14217;50.986;5.826;2023-07-02T07:14:09;100435.22;;;26.69;38.91
26563;BME280;14217;50.986;5.826;2023-07-02T07:19:11;100448.66;;;26.69;38.83
26563;BME280;14217;50.986;5.826;2023-07-02T07:24:13;100451.22;;;26.70;38.75
26563;BME280;14217;50.986;5.826;2023-07-02T07:29:15;100447.41;;;26.73;38.57
26563;BME280;14217;50.986;5.826;2023-07-02T07:34:17;100443.75;;;26.74;38.78
26563;BME280;14217;50.986;5.826;2023-07-02T07:39:19;100446.50;;;26.63;38.85
26563;BME280;14217;50.986;5.826;2023-07-02T07:44:21;100448.63;;;26.59;38.71
26563;BME280;14217;50.986;5.826;2023-07-02T07:49:23;100446.28;;;26.54;38.48
26563;BME280;14217;50.986;5.826;2023-07-02T07:54:26;100455.03;;;26.68;38.40
26563;BME280;14217;50.986;5.826;2023-07-02T07:59:28;100459.84;;;26.53;38.80
26563;BME280;14217;50.986;5.826;2023-07-02T08:04:30;100456.78;;;26.58;38.97
26563;BME280;14217;50.986;5.826;2023-07-02T08:09:32;100456.78;;;26.58;39.26
26563;BME280;14217;50.986;5.826;2023-07-02T08:14:34;100459.72;;;26.54;39.56
26563;BME280;14217;50.986;5.826;2023-07-02T08:19:39;100457.97;;;26.65;39.10
26563;BME280;14217;50.986;5.826;2023-07-02T08:24:41;100461.84;;;26.72;39.05
26563;BME280;14217;50.986;5.826;2023-07-02T08:29:46;100470.03;;;26.70;38.91
26563;BME280;14217;50.986;5.826;2023-07-02T08:34:48;100475.28;;;26.72;38.96
26563;BME280;14217;50.986;5.826;2023-07-02T08:39:52;100477.66;;;26.65;39.09
26563;BME280;14217;50.986;5.826;2023-07-02T08:44:54;100479.84;;;26.60;38.23
26563;BME280;14217;50.986;5.826;2023-07-02T08:49:57;100481.97;;;26.45;37.95
26563;BME280;14217;50.986;5.826;2023-07-02T08:54:59;100477.44;;;26.57;37.35
26563;BME280;14217;50.986;5.826;2023-07-02T09:00:08;100490.03;;;26.56;37.42
26563;BME280;14217;50.986;5.826;2023-07-02T09:05:11;100485.72;;;26.54;37.48
26563;BME280;14217;50.986;5.826;2023-07-02T09:10:33;100485.84;;;26.64;37.06
26563;BME280;14217;50.986;5.826;2023-07-02T09:15:39;100493.66;;;26.55;38.54
26563;BME280;14217;50.986;5.826;2023-07-02T09:20:42;100496.75;;;26.51;36.55
26563;BME280;14217;50.986;5.826;2023-07-02T09:25:44;100489.66;;;26.50;36.97
26563;BME280;14217;50.986;5.826;2023-07-02T09:30:56;100490.31;;;26.42;36.83
26563;BME280;14217;50.986;5.826;2023-07-02T09:35:58;100482.38;;;26.41;37.10
26563;BME280;14217;50.986;5.826;2023-07-02T09:41:00;100482.31;;;26.52;36.64
26563;BME280;14217;50.986;5.826;2023-07-02T09:46:03;100466.47;;;26.49;36.53
26563;BME280;14217;50.986;5.826;2023-07-02T09:51:05;100485.38;;;26.47;36.29
26563;BME280;14217;50.986;5.826;2023-07-02T09:56:08;100495.91;;;26.39;35.73
26563;BME280;14217;50.986;5.826;2023-07-02T10:01:10;100500.44;;;26.39;34.95
26563;BME280;14217;50.986;5.826;2023-07-02T10:06:12;100501.06;;;26.31;32.73
26563;BME280;14217;50.986;5.826;2023-07-02T10:11:14;100500.50;;;26.27;31.32
26563;BME280;14217;50.986;5.826;2023-07-02T10:16:16;100505.72;;;26.29;30.20
26563;BME280;14217;50.986;5.826;2023-07-02T10:21:18;100499.38;;;26.30;30.05
26563;BME280;14217;50.986;5.826;2023-07-02T10:26:20;100495.59;;;26.32;28.93
26563;BME280;14217;50.986;5.826;2023-07-02T10:31:23;100501.44;;;26.38;28.85
26563;BME280;14217;50.986;5.826;2023-07-02T10:36:25;100499.38;;;26.30;28.72
26563;BME280;14217;50.986;5.826;2023-07-02T10:41:28;100503.53;;;26.34;28.60
26563;BME280;14217;50.986;5.826;2023-07-02T10:46:31;100507.91;;;26.35;28.63
26563;BME280;14217;50.986;5.826;2023-07-02T10:51:33;100498.38;;;26.42;28.70
26563;BME280;14217;50.986;5.826;2023-07-02T10:56:35;100498.59;;;26.39;28.88
26563;BME280;14217;50.986;5.826;2023-07-02T11:01:37;100498.59;;;26.39;29.21
26563;BME280;14217;50.986;5.826;2023-07-02T11:06:39;100498.16;;;26.34;29.10
26563;BME280;14217;50.986;5.826;2023-07-02T11:11:55;100499.13;;;26.33;29.51
26563;BME280;14217;50.986;5.826;2023-07-02T11:16:58;100502.28;;;26.38;29.83
26563;BME280;14217;50.986;5.826;2023-07-02T11:22:01;100511.31;;;26.37;29.86
26563;BME280;14217;50.986;5.826;2023-07-02T11:27:04;100513.28;;;26.35;30.10
26563;BME280;14217;50.986;5.826;2023-07-02T11:32:11;100504.47;;;26.33;30.52
26563;BME280;14217;50.986;5.826;2023-07-02T11:37:13;100502.78;;;26.32;30.87
26563;BME280;14217;50.986;5.826;2023-07-02T11:42:15;100495.84;;;26.29;30.41
26563;BME280;14217;50.986;5.826;2023-07-02T11:47:17;100502.47;;;26.25;30.59
26563;BME280;14217;50.986;5.826;2023-07-02T11:52:19;100496.44;;;26.33;30.76
26563;BME280;14217;50.986;5.826;2023-07-02T11:57:21;100502.19;;;26.28;31.27
26563;BME280;14217;50.986;5.826;2023-07-02T12:02:24;100502.78;;;26.32;30.66
26563;BME280;14217;50.986;5.826;2023-07-02T12:07:26;100507.06;;;26.34;30.66
26563;BME280;14217;50.986;5.826;2023-07-02T12:12:28;100509.75;;;26.34;31.17
26563;BME280;14217;50.986;5.826;2023-07-02T12:17:30;100509.91;;;26.54;30.93
26563;BME280;14217;50.986;5.826;2023-07-02T12:22:32;100519.31;;;26.60;31.35
26563;BME280;14217;50.986;5.826;2023-07-02T12:27:35;100521.16;;;26.59;31.95
26563;BME280;14217;50.986;5.826;2023-07-02T12:32:38;100523.91;;;26.69;32.54
26563;BME280;14217;50.986;5.826;2023-07-02T12:37:47;100526.34;;;26.72;32.43
26563;BME280;14217;50.986;5.826;2023-07-02T12:42:49;100522.44;;;26.76;31.58
26563;BME280;14217;50.986;5.826;2023-07-02T12:47:51;100523.88;;;26.80;32.19
26563;BME280;14217;50.986;5.826;2023-07-02T12:52:53;100521.03;;;26.82;32.44
26563;BME280;14217;50.986;5.826;2023-07-02T12:57:55;100521.91;;;26.82;32.76
26563;BME280;14217;50.986;5.826;2023-07-02T13:02:57;100521.75;;;26.84;32.92
26563;BME280;14217;50.986;5.826;2023-07-02T13:08:06;100528.84;;;26.85;32.93
26563;BME280;14217;50.986;5.826;2023-07-02T13:13:08;100529.81;;;26.84;33.15
26563;BME280;14217;50.986;5.826;2023-07-02T13:18:23;100515.75;;;26.91;33.00
26563;BME280;14217;50.986;5.826;2023-07-02T13:23:25;100534.13;;;26.86;32.96
26563;BME280;14217;50.986;5.826;2023-07-02T13:28:27;100521.13;;;26.91;32.81
26563;BME280;14217;50.986;5.826;2023-07-02T13:33:30;100522.97;;;26.91;32.66
26563;BME280;14217;50.986;5.826;2023-07-02T13:38:33;100526.25;;;26.94;32.73
26563;BME280;14217;50.986;5.826;2023-07-02T13:43:35;100517.47;;;26.92;32.29
26563;BME280;14217;50.986;5.826;2023-07-02T13:48:37;100531.47;;;26.96;32.38
26563;BME280;14217;50.986;5.826;2023-07-02T13:53:39;100525.97;;;26.97;32.45
26563;BME280;14217;50.986;5.826;2023-07-02T14:03:48;100524.13;;;26.98;32.07
26563;BME280;14217;50.986;5.826;2023-07-02T14:08:50;100520.72;;;26.96;32.49
26563;BME280;14217;50.986;5.826;2023-07-02T14:13:52;100520.59;;;26.97;32.62
26563;BME280;14217;50.986;5.826;2023-07-02T14:18:54;100516.38;;;27.05;32.04
26563;BME280;14217;50.986;5.826;2023-07-02T14:23:57;100521.31;;;27.00;32.32
26563;BME280;14217;50.986;5.826;2023-07-02T14:29:03;100510.44;;;27.01;32.16
26563;BME280;14217;50.986;5.826;2023-07-02T14:34:06;100512.25;;;27.01;32.70
26563;BME280;14217;50.986;5.826;2023-07-02T14:39:08;100515.81;;;27.01;32.92
26563;BME280;14217;50.986;5.826;2023-07-02T14:44:11;100510.69;;;26.98;32.48
26563;BME280;14217;50.986;5.826;2023-07-02T14:49:14;100500.41;;;27.03;31.85
26563;BME280;14217;50.986;5.826;2023-07-02T14:54:16;100498.28;;;27.07;31.66
26563;BME280;14217;50.986;5.826;2023-07-02T14:59:19;100489.78;;;27.02;31.62
26563;BME280;14217;50.986;5.826;2023-07-02T15:04:21;100495.16;;;27.02;31.40
26563;BME280;14217;50.986;5.826;2023-07-02T15:09:24;100490.41;;;27.15;31.74
26563;BME280;14217;50.986;5.826;2023-07-02T15:14:26;100490.56;;;27.13;31.89
26563;BME280;14217;50.986;5.826;2023-07-02T15:19:28;100493.25;;;27.13;31.78
26563;BME280;14217;50.986;5.826;2023-07-02T15:24:30;100479.84;;;27.02;31.84
26563;BME280;14217;50.986;5.826;2023-07-02T15:29:35;100485.56;;;27.09;31.60
26563;BME280;14217;50.986;5.826;2023-07-02T15:34:37;100487.88;;;27.13;32.13
26563;BME280;14217;50.986;5.826;2023-07-02T15:39:40;100483.75;;;27.09;31.61
26563;BME280;14217;50.986;5.826;2023-07-02T15:44:42;100484.31;;;27.13;32.00
26563;BME280;14217;50.986;5.826;2023-07-02T15:49:45;100479.22;;;27.10;31.88
26563;BME280;14217;50.986;5.826;2023-07-02T15:54:47;100483.88;;;27.08;31.87
26563;BME280;14217;50.986;5.826;2023-07-02T15:59:49;100473.34;;;27.05;31.88
26563;BME280;14217;50.986;5.826;2023-07-02T16:04:51;100476.53;;;27.10;31.90
26563;BME280;14217;50.986;5.826;2023-07-02T16:09:53;100479.72;;;27.04;32.58
26563;BME280;14217;50.986;5.826;2023-07-02T16:14:56;100472.19;;;26.97;32.75
26563;BME280;14217;50.986;5.826;2023-07-02T16:20:00;100475.06;;;27.06;32.56
26563;BME280;14217;50.986;5.826;2023-07-02T16:25:02;100470.13;;;27.11;32.45
26563;BME280;14217;50.986;5.826;2023-07-02T16:30:04;100474.66;;;27.10;32.65
26563;BME280;14217;50.986;5.826;2023-07-02T16:35:07;100459.53;;;27.09;32.83
26563;BME280;14217;50.986;5.826;2023-07-02T16:40:11;100461.50;;;27.07;32.67
26563;BME280;14217;50.986;5.826;2023-07-02T16:45:14;100456.38;;;27.04;32.77
26563;BME280;14217;50.986;5.826;2023-07-02T16:50:16;100459.53;;;27.09;32.98
26563;BME280;14217;50.986;5.826;2023-07-02T16:55:18;100453.44;;;27.07;32.97
26563;BME280;14217;50.986;5.826;2023-07-02T17:00:20;100459.19;;;27.03;32.92
26563;BME280;14217;50.986;5.826;2023-07-02T17:05:23;100455.09;;;26.99;33.19
26563;BME280;14217;50.986;5.826;2023-07-02T17:10:26;100461.31;;;26.99;33.17
26563;BME280;14217;50.986;5.826;2023-07-02T17:15:27;100462.03;;;27.01;33.11
26563;BME280;14217;50.986;5.826;2023-07-02T17:20:29;100451.59;;;27.08;32.87
26563;BME280;14217;50.986;5.826;2023-07-02T17:25:32;100457.69;;;27.10;33.25
26563;BME280;14217;50.986;5.826;2023-07-02T17:30:34;100450.16;;;27.04;33.42
26563;BME280;14217;50.986;5.826;2023-07-02T17:35:39;100439.59;;;27.12;33.03
26563;BME280;14217;50.986;5.826;2023-07-02T17:40:41;100445.50;;;27.06;33.00
26563;BME280;14217;50.986;5.826;2023-07-02T17:45:55;100440.97;;;27.06;33.37
26563;BME280;14217;50.986;5.826;2023-07-02T17:50:59;100431.06;;;27.07;33.20
26563;BME280;14217;50.986;5.826;2023-07-02T17:56:01;100438.50;;;26.93;34.00
26563;BME280;14217;50.986;5.826;2023-07-02T18:01:03;100431.38;;;26.83;33.25
26563;BME280;14217;50.986;5.826;2023-07-02T18:06:06;100425.06;;;26.93;32.99
26563;BME280;14217;50.986;5.826;2023-07-02T18:11:09;100420.28;;;26.97;33.22
26563;BME280;14217;50.986;5.826;2023-07-02T18:16:11;100426.63;;;26.96;33.36
26563;BME280;14217;50.986;5.826;2023-07-02T18:21:13;100431.16;;;26.95;33.41
26563;BME280;14217;50.986;5.826;2023-07-02T18:26:16;100440.06;;;26.75;33.29
26563;BME280;14217;50.986;5.826;2023-07-02T18:31:18;100442.03;;;26.73;32.69
26563;BME280;14217;50.986;5.826;2023-07-02T18:36:20;100437.25;;;26.76;32.80
26563;BME280;14217;50.986;5.826;2023-07-02T18:41:22;100438.63;;;26.71;32.33
26563;BME280;14217;50.986;5.826;2023-07-02T18:46:25;100439.56;;;26.60;31.52
26563;BME280;14217;50.986;5.826;2023-07-02T18:51:27;100440.19;;;26.52;31.25
26563;BME280;14217;50.986;5.826;2023-07-02T18:56:29;100437.47;;;26.64;30.98
26563;BME280;14217;50.986;5.826;2023-07-02T19:01:31;100435.41;;;26.56;31.22
26563;BME280;14217;50.986;5.826;2023-07-02T19:06:33;100435.69;;;26.74;30.86
26563;BME280;14217;50.986;5.826;2023-07-02T19:11:35;100441.72;;;26.66;31.16
26563;BME280;14217;50.986;5.826;2023-07-02T19:16:37;100437.34;;;26.65;30.98
26563;BME280;14217;50.986;5.826;2023-07-02T19:21:40;100435.75;;;26.63;30.71
26563;BME280;14217;50.986;5.826;2023-07-02T19:26:42;100445.94;;;26.80;31.09
26563;BME280;14217;50.986;5.826;2023-07-02T19:31:44;100458.16;;;26.94;30.86
26563;BME280;14217;50.986;5.826;2023-07-02T19:36:49;100461.00;;;26.92;31.20
26563;BME280;14217;50.986;5.826;2023-07-02T19:41:52;100464.13;;;26.76;31.77
26563;BME280;14217;50.986;5.826;2023-07-02T19:46:55;100474.25;;;26.84;32.08
26563;BME280;14217;50.986;5.826;2023-07-02T19:51:57;100468.00;;;26.84;32.13
26563;BME280;14217;50.986;5.826;2023-07-02T19:56:59;100477.25;;;26.91;32.29
26563;BME280;14217;50.986;5.826;2023-07-02T20:02:01;100490.91;;;26.99;31.95
26563;BME280;14217;50.986;5.826;2023-07-02T20:07:03;100495.94;;;26.92;32.33
26563;BME280;14217;50.986;5.826;2023-07-02T20:12:05;100503.28;;;26.90;32.09
26563;BME280;14217;50.986;5.826;2023-07-02T20:17:07;100519.34;;;26.81;32.52
26563;BME280;14217;50.986;5.826;2023-07-02T20:22:09;100517.78;;;26.78;31.87
26563;BME280;14217;50.986;5.826;2023-07-02T20:27:11;100526.09;;;26.75;30.74
26563;BME280;14217;50.986;5.826;2023-07-02T20:32:15;100537.44;;;26.79;30.34
26563;BME280;14217;50.986;5.826;2023-07-02T20:37:20;100532.66;;;26.82;31.46
26563;BME280;14217;50.986;5.826;2023-07-02T20:42:23;100529.31;;;26.90;31.65
26563;BME280;14217;50.986;5.826;2023-07-02T20:47:25;100527.22;;;26.93;32.52
26563;BME280;14217;50.986;5.826;2023-07-02T20:52:27;100543.81;;;26.99;32.50
26563;BME280;14217;50.986;5.826;2023-07-02T20:57:29;100548.94;;;27.02;32.28
26563;BME280;14217;50.986;5.826;2023-07-02T21:02:32;100554.31;;;27.02;32.37
26563;BME280;14217;50.986;5.826;2023-07-02T21:07:34;100557.00;;;27.02;32.50
26563;BME280;14217;50.986;5.826;2023-07-02T21:12:36;100559.41;;;27.05;32.68
26563;BME280;14217;50.986;5.826;2023-07-02T21:17:38;100557.72;;;27.04;32.62
26563;BME280;14217;50.986;5.826;2023-07-02T21:22:41;100553.19;;;27.04;32.80
26563;BME280;14217;50.986;5.826;2023-07-02T21:27:43;100561.97;;;27.06;32.71
26563;BME280;14217;50.986;5.826;2023-07-02T21:32:46;100555.47;;;27.09;32.72
26563;BME280;14217;50.986;5.826;2023-07-02T21:37:49;100554.38;;;27.11;32.74
26563;BME280;14217;50.986;5.826;2023-07-02T21:42:51;100553.66;;;27.09;32.94
26563;BME280;14217;50.986;5.826;2023-07-02T21:47:53;100554.63;;;27.08;32.93
26563;BME280;14217;50.986;5.826;2023-07-02T21:52:55;100562.56;;;27.10;32.77
26563;BME280;14217;50.986;5.826;2023-07-02T21:57:59;100558.03;;;27.10;32.98
26563;BME280;14217;50.986;5.826;2023-07-02T22:03:01;100545.44;;;27.11;33.12
26563;BME280;14217;50.986;5.826;2023-07-02T22:08:04;100546.44;;;27.10;33.21
26563;BME280;14217;50.986;5.826;2023-07-02T22:13:06;100544.47;;;27.12;33.14
26563;BME280;14217;50.986;5.826;2023-07-02T22:18:08;100549.13;;;27.10;33.34
26563;BME280;14217;50.986;5.826;2023-07-02T22:23:11;100549.13;;;27.10;33.38
26563;BME280;14217;50.986;5.826;2023-07-02T22:28:13;100553.25;;;27.14;33.45
26563;BME280;14217;50.986;5.826;2023-07-02T22:33:15;100545.31;;;27.12;33.33
26563;BME280;14217;50.986;5.826;2023-07-02T22:38:17;100543.75;;;27.10;33.24
26563;BME280;14217;50.986;5.826;2023-07-02T22:43:19;100544.19;;;27.15;33.44
26563;BME280;14217;50.986;5.826;2023-07-02T22:48:21;100539.22;;;27.10;33.59
26563;BME280;14217;50.986;5.826;2023-07-02T22:53:24;100540.78;;;27.13;33.56
26563;BME280;14217;50.986;5.826;2023-07-02T22:58:26;100526.50;;;27.12;33.45
26563;BME280;14217;50.986;5.826;2023-07-02T23:03:28;100536.13;;;27.15;33.46
26563;BME280;14217;50.986;5.826;2023-07-02T23:08:30;100531.28;;;27.09;33.76
26563;BME280;14217;50.986;5.826;2023-07-02T23:13:32;100536.84;;;27.17;33.64
26563;BME280;14217;50.986;5.826;2023-07-02T23:18:34;100532.88;;;27.11;33.75
26563;BME280;14217;50.986;5.826;2023-07-02T23:23:36;100530.91;;;27.13;33.63
26563;BME280;14217;50.986;5.826;2023-07-02T23:28:40;100524.91;;;27.10;33.92
26563;BME280;14217;50.986;5.826;2023-07-02T23:33:42;100524.91;;;27.10;33.78
26563;BME280;14217;50.986;5.826;2023-07-02T23:38:44;100521.09;;;27.12;33.64
26563;BME280;14217;50.986;5.826;2023-07-02T23:43:47;100517.56;;;27.12;33.92
26563;BME280;14217;50.986;5.826;2023-07-02T23:48:48;100519.25;;;27.13;33.87
26563;BME280;14217;50.986;5.826;2023-07-02T23:53:50;100517.69;;;27.10;33.82
26563;BME280;14217;50.986;5.826;2023-07-02T23:58:52;100517.56;;;27.12;33.62
